Flight Track Log - Related Links

Times and Time Zones

All times are in EDT time to prevent confusion due to time zone crossing. See the ASQ4884 flight status page for this flight to view local times or setup timezone preferences in your user account.

Time Position Orientation Groundspeed Altitude Reporting Facility
EDT Latitude Longitude Course Direction KTS MPH feet Rate Location/Type
Wed 09:40:15 AM 38.0175 -84.5683 205° Southwest  Level FlightAware Approximate
Wed 09:40:47 AM 37.9631 -84.6003 117° Southeast 248 285 3,900  Level Indianapolis Center
Wed 09:41:47 AM 37.9264 -84.5075 119° Southeast 289 333 6,300 2,350 Climbing Indianapolis Center
Wed 09:42:47 AM 37.8856 -84.4147 137° Southeast 296 341 8,600 2,150 Climbing Indianapolis Center
Wed 09:43:47 AM 37.8256 -84.3431 152° Southeast 302 348 10,600 1,500 Climbing Indianapolis Center
Wed 09:44:47 AM 37.7422 -84.2872 153° Southeast 320 368 11,600 1,400 Climbing Indianapolis Center
Wed 09:45:47 AM 37.6531 -84.2286 154° Southeast 347 399 13,400 1,850 Climbing Indianapolis Center
Wed 09:46:47 AM 37.5636 -84.1728 153° Southeast 365 420 15,300 1,800 Climbing Indianapolis Center
Wed 09:47:47 AM 37.4722 -84.1144 153° Southeast 359 413 17,000 1,250 Climbing Indianapolis Center
Wed 09:48:47 AM 37.3806 -84.0561 153° Southeast 365 420 17,800 900 Climbing Indianapolis Center
Wed 09:49:47 AM 37.2828 -83.9928 153° Southeast 370 426 18,800 1,050 Climbing Indianapolis Center
Wed 09:50:47 AM 37.1850 -83.9297 153° Southeast 387 445 19,900 1,150 Climbing Indianapolis Center
Wed 09:51:47 AM 37.0872 -83.8667 153° Southeast 393 452 21,100 944 Climbing Indianapolis Center
Wed 09:54:04 AM 36.8650 -83.7272 154° Southeast 394 453 23,000 579 Climbing Atlanta Center
Wed 09:55:04 AM 36.7606 -83.6631 153° Southeast 410 472 23,000  Level Atlanta Center
Wed 09:56:04 AM 36.6519 -83.5936 153° Southeast 423 487 23,000  Level Atlanta Center
Wed 09:57:04 AM 36.5411 -83.5219 153° Southeast 439 505 23,000  Level Atlanta Center
Wed 09:58:04 AM 36.4281 -83.4506 156° South 452 520 23,000  Level Atlanta Center
Wed 09:59:04 AM 36.3153 -83.3869 175° South 452 520 23,000  Level Atlanta Center
Wed 10:00:04 AM 36.1942 -83.3750 177° South 429 494 23,000  Level Atlanta Center
Wed 10:01:04 AM 36.0711 -83.3683 178° South 442 509 23,000  Level Atlanta Center
Wed 10:02:04 AM 35.9500 -83.3642 176° South 442 509 23,000  Level Atlanta Center
Wed 10:03:04 AM 35.8289 -83.3550 179° South 442 509 23,000  Level Atlanta Center
Wed 10:04:04 AM 35.7058 -83.3533 199° South 442 509 23,000  Level Atlanta Center
Wed 10:05:04 AM 35.5936 -83.4003 198° South 432 497 23,000  Level Atlanta Center
Wed 10:06:04 AM 35.4789 -83.4472 198° South 432 497 23,000  Level Atlanta Center
Wed 10:07:04 AM 35.3644 -83.4939 199° South 432 497 23,000  Level Atlanta Center
Wed 10:08:04 AM 35.2519 -83.5403 199° South 437 503 23,000  Level Atlanta Center
Wed 10:09:04 AM 35.1394 -83.5867 197° South 437 503 23,000  Level Atlanta Center
Wed 10:10:04 AM 35.0250 -83.6306 199° South 437 503 23,000  Level Atlanta Center
Wed 10:11:04 AM 34.9122 -83.6792 198° South 437 503 23,000  Level Atlanta Center
Wed 10:12:05 AM 34.7997 -83.7225 199° South 432 497 23,000  Level Atlanta Center
Wed 10:13:04 AM 34.6872 -83.7686 198° South 427 491 23,000 -1,210 Level Atlanta Center
Wed 10:14:04 AM 34.5725 -83.8142 199° South 427 491 20,600 -2,300 Descending Atlanta Center
Wed 10:15:04 AM 34.4517 -83.8650 197° South 427 491 18,400 -2,150 Descending Atlanta Center
Wed 10:16:04 AM 34.3453 -83.9056 199° South 422 486 16,300 -2,150 Descending Atlanta Center
Wed 10:17:04 AM 34.2347 -83.9508 205° Southwest 422 486 14,100 -1,650 Descending Atlanta Center
Wed 10:18:04 AM 34.1428 -84.0036 215° Southwest 396 456 13,000 -1,050 Descending Atlanta Center
Wed 10:19:04 AM 34.0614 -84.0714 215° Southwest 368 423 12,000 -500 Descending Atlanta Center
Wed 10:20:04 AM 33.9778 -84.1414 215° Southwest 368 423 12,000  Level Atlanta Center
Wed 10:21:05 AM 33.8922 -84.2139 214° Southwest 379 436 12,000  Level Atlanta Center
Wed 10:22:04 AM 33.8150 -84.2764 217° Southwest 379 436 12,000 -202 Level Atlanta Center
Wed 10:23:04 AM 33.7481 -84.3361 256° West 335 386 11,600 -950 Descending Atlanta Center
Wed 10:24:04 AM 33.7311 -84.4183 267° West 257 296 10,100 -1,800 Descending Atlanta Center
Wed 10:25:04 AM 33.7267 -84.5158 263° West 264 304 8,000 -2,311 Descending Atlanta Center
Wed 10:26:19 AM 33.7167 -84.6167 151° Southeast 252 290 4,900 -2,044 Descending Atlanta TRACON
Wed 10:27:19 AM 33.6667 -84.5833 107° East 242 278 3,400 -1,238 Descending Atlanta TRACON
Wed 10:28:25 AM 33.6500 -84.5167 90° East 191 220 2,300 -900 Descending Atlanta TRACON
Wed 10:29:19 AM 33.6500 -84.4667 90° East 152 175 1,600 -778 Descending Atlanta TRACON

Login

Don't have an account? Register now (free) for customized features, flight alerts, and more!